createdAt,value
2019-05-05T00:01:50.746Z,99.90
2019-05-05T00:04:21.824Z,99.90
2019-05-05T00:06:51.186Z,99.90
2019-05-05T00:09:21.147Z,99.90
2019-05-05T00:12:08.639Z,99.90
2019-05-05T00:14:44.232Z,99.90
2019-05-05T00:17:18.486Z,99.90
2019-05-05T00:19:48.080Z,99.90
2019-05-05T00:22:17.754Z,99.90
2019-05-05T00:24:47.368Z,99.90
2019-05-05T00:27:16.816Z,99.90
2019-05-05T00:29:46.256Z,99.90
2019-05-05T00:32:16.769Z,99.90
2019-05-05T00:34:47.345Z,99.90
2019-05-05T00:37:16.787Z,99.90
2019-05-05T00:39:46.218Z,99.90
2019-05-05T00:42:15.750Z,99.90
2019-05-05T00:44:45.196Z,99.90
2019-05-05T00:47:25.314Z,99.90
2019-05-05T00:49:56.339Z,99.90
2019-05-05T00:52:25.916Z,99.90
2019-05-05T00:54:55.702Z,99.90
2019-05-05T00:57:25.237Z,99.90
2019-05-05T00:59:54.638Z,99.90
2019-05-05T01:02:28.486Z,99.90
2019-05-05T01:05:08.438Z,99.90
2019-05-05T01:07:37.868Z,99.90
2019-05-05T01:10:07.851Z,99.90
2019-05-05T01:12:38.047Z,99.90
2019-05-05T01:15:07.892Z,99.90
2019-05-05T01:17:37.252Z,99.90
2019-05-05T01:20:07.232Z,99.90
2019-05-05T01:22:36.728Z,99.90
2019-05-05T01:25:07.412Z,99.90
2019-05-05T01:27:36.902Z,99.90
2019-05-05T01:30:11.763Z,99.90
2019-05-05T01:32:44.495Z,99.90
2019-05-05T01:35:14.468Z,99.90
2019-05-05T01:37:46.810Z,99.90
2019-05-05T01:40:32.578Z,99.90
2019-05-05T01:43:02.193Z,99.90
2019-05-05T01:45:31.696Z,99.90
2019-05-05T01:48:01.258Z,99.90
2019-05-05T01:50:31.819Z,99.90
2019-05-05T01:53:01.262Z,99.90
2019-05-05T01:55:31.520Z,99.90
2019-05-05T01:58:01.216Z,99.90
2019-05-05T02:00:30.703Z,99.90
2019-05-05T02:03:00.040Z,99.90
2019-05-05T02:05:29.429Z,99.90
2019-05-05T02:08:00.009Z,99.90
2019-05-05T02:10:29.500Z,99.90
2019-05-05T02:12:58.923Z,99.90
2019-05-05T02:15:28.487Z,99.90
2019-05-05T02:17:58.096Z,99.90
2019-05-05T02:20:38.972Z,99.90
2019-05-05T02:23:09.205Z,99.90
2019-05-05T02:25:38.770Z,99.90
2019-05-05T02:28:09.422Z,99.90
2019-05-05T02:30:40.762Z,99.90
2019-05-05T02:33:11.912Z,99.90
2019-05-05T02:35:41.486Z,99.90
2019-05-05T02:38:10.974Z,99.90
2019-05-05T02:40:41.280Z,99.90
2019-05-05T02:43:10.862Z,99.90
2019-05-05T02:45:47.662Z,99.90
2019-05-05T02:48:18.437Z,99.90
2019-05-05T02:51:02.100Z,99.90
2019-05-05T02:53:36.703Z,99.90
2019-05-05T02:56:08.213Z,99.90
2019-05-05T02:58:38.981Z,99.90
2019-05-05T03:01:25.431Z,99.90
2019-05-05T03:03:55.699Z,99.90
2019-05-05T03:06:25.161Z,99.90
2019-05-05T03:08:56.334Z,99.90
2019-05-05T03:11:30.150Z,99.90
2019-05-05T03:14:04.058Z,99.90
2019-05-05T03:16:38.925Z,99.90
2019-05-05T03:19:10.389Z,99.90
2019-05-05T03:21:40.591Z,99.90
2019-05-05T03:24:10.961Z,99.90
2019-05-05T03:26:41.048Z,99.90
2019-05-05T03:29:13.821Z,99.90
2019-05-05T03:31:45.904Z,99.90
2019-05-05T03:34:16.385Z,99.90
2019-05-05T03:36:46.448Z,99.90
2019-05-05T03:39:20.796Z,99.90
2019-05-05T03:42:08.283Z,99.90
2019-05-05T03:44:39.424Z,99.90
2019-05-05T03:47:09.204Z,99.90
2019-05-05T03:49:38.767Z,99.90
2019-05-05T03:52:08.679Z,99.90
2019-05-05T03:54:38.396Z,99.90
2019-05-05T03:57:08.281Z,99.90
2019-05-05T03:59:39.725Z,99.90
2019-05-05T04:02:29.869Z,99.90
2019-05-05T04:05:16.374Z,99.90
2019-05-05T04:07:46.451Z,99.90
2019-05-05T04:10:16.043Z,99.90
2019-05-05T04:12:45.556Z,99.90
2019-05-05T04:15:15.156Z,99.90
2019-05-05T04:20:58.011Z,99.90
2019-05-05T04:23:27.454Z,99.90
2019-05-05T04:25:56.888Z,99.90
2019-05-05T04:28:26.331Z,99.90
2019-05-05T04:30:55.767Z,99.90
2019-05-05T04:33:25.213Z,99.90
2019-05-05T04:35:54.677Z,99.90
2019-05-05T04:38:25.066Z,99.90
2019-05-05T04:40:54.486Z,99.90
2019-05-05T04:43:24.625Z,99.90
2019-05-05T04:45:54.216Z,99.90
2019-05-05T04:48:31.231Z,99.90
2019-05-05T04:51:04.665Z,99.90
2019-05-05T04:53:35.228Z,99.90
2019-05-05T04:56:04.819Z,99.90
2019-05-05T04:58:34.256Z,99.90
2019-05-05T05:01:04.680Z,99.90
2019-05-05T05:03:45.001Z,99.90
2019-05-05T05:06:16.097Z,99.90
2019-05-05T05:08:45.533Z,99.90
2019-05-05T05:11:14.980Z,99.90
2019-05-05T05:13:44.436Z,99.90
2019-05-05T05:16:14.994Z,99.90
2019-05-05T05:18:45.544Z,99.90
2019-05-05T05:21:17.741Z,99.90
2019-05-05T05:23:47.163Z,99.90
2019-05-05T05:26:16.591Z,99.90
2019-05-05T05:28:46.043Z,99.90
2019-05-05T05:31:15.488Z,99.90
2019-05-05T05:33:44.945Z,99.90
2019-05-05T05:36:14.531Z,99.90
2019-05-05T05:38:45.710Z,99.90
2019-05-05T05:41:19.711Z,99.90
2019-05-05T05:44:03.600Z,99.90
2019-05-05T05:46:46.705Z,99.90
2019-05-05T05:49:17.710Z,99.90
2019-05-05T05:51:47.217Z,99.90
2019-05-05T05:54:18.294Z,99.90
2019-05-05T05:56:49.291Z,99.90
2019-05-05T05:59:18.805Z,98.40
2019-05-05T06:01:48.326Z,98.30
2019-05-05T06:04:17.838Z,97.90
2019-05-05T06:06:47.285Z,97.00
2019-05-05T06:09:16.730Z,96.90
2019-05-05T06:11:46.171Z,97.40
2019-05-05T06:14:15.703Z,98.60
2019-05-05T06:16:45.199Z,98.80
2019-05-05T06:19:14.605Z,99.90
2019-05-05T06:21:44.129Z,99.90
2019-05-05T06:24:14.571Z,99.90
2019-05-05T06:26:44.658Z,99.80
2019-05-05T06:29:14.552Z,98.70
2019-05-05T06:31:44.801Z,98.90
2019-05-05T06:34:14.331Z,97.70
2019-05-05T06:36:44.466Z,98.60
2019-05-05T06:39:14.067Z,98.10
2019-05-05T06:41:45.161Z,98.20
2019-05-05T06:44:22.119Z,98.90
2019-05-05T06:46:59.158Z,99.80
2019-05-05T06:49:31.131Z,99.90
2019-05-05T06:51:59.981Z,99.90
2019-05-05T06:54:29.409Z,99.80
2019-05-05T06:56:59.001Z,99.10
2019-05-05T06:59:28.437Z,98.30
2019-05-05T07:01:57.898Z,98.50
2019-05-05T07:04:27.338Z,98.00
2019-05-05T07:06:57.241Z,97.60
2019-05-05T07:09:26.717Z,97.00
2019-05-05T07:11:56.155Z,95.70
2019-05-05T07:14:25.689Z,95.40
2019-05-05T07:16:55.061Z,95.50
2019-05-05T07:19:25.421Z,94.60
2019-05-05T07:21:54.926Z,94.10
2019-05-05T07:24:25.630Z,94.30
2019-05-05T07:26:54.967Z,94.60
2019-05-05T07:29:24.525Z,95.40
2019-05-05T07:31:54.504Z,95.90
2019-05-05T07:34:25.703Z,95.80
2019-05-05T07:36:55.192Z,96.00
2019-05-05T07:39:25.912Z,95.50
2019-05-05T07:41:55.340Z,95.40
2019-05-05T07:44:29.312Z,96.60
2019-05-05T07:46:55.768Z,97.20
2019-05-05T07:49:25.223Z,98.30
2019-05-05T07:51:54.916Z,98.10
2019-05-05T07:54:24.493Z,99.30
2019-05-05T07:56:54.052Z,99.90
2019-05-05T07:59:23.908Z,99.90
2019-05-05T08:01:54.746Z,99.90
2019-05-05T08:04:24.460Z,99.90
2019-05-05T08:06:56.737Z,99.90
2019-05-05T08:09:26.193Z,99.90
2019-05-05T08:11:55.644Z,99.90
2019-05-05T08:14:25.101Z,99.90
2019-05-05T08:16:56.258Z,99.90
2019-05-05T08:19:34.705Z,99.90
2019-05-05T08:22:04.320Z,99.90
2019-05-05T08:24:51.496Z,99.90
2019-05-05T08:27:24.900Z,99.90
2019-05-05T08:29:57.894Z,99.90
2019-05-05T08:32:32.753Z,99.90
2019-05-05T08:35:04.324Z,99.90
2019-05-05T08:37:34.303Z,99.90
2019-05-05T08:40:06.782Z,99.90
2019-05-05T08:42:36.364Z,99.90
2019-05-05T08:45:06.989Z,99.90
2019-05-05T08:47:36.440Z,99.90
2019-05-05T08:50:07.627Z,99.90
2019-05-05T08:52:37.144Z,99.90
2019-05-05T08:55:06.748Z,99.90
2019-05-05T08:57:36.572Z,99.90
2019-05-05T09:00:09.242Z,99.90
2019-05-05T09:02:38.818Z,99.90
2019-05-05T09:05:08.535Z,99.90
2019-05-05T09:07:38.038Z,99.90
2019-05-05T09:10:07.646Z,99.90
2019-05-05T09:12:37.147Z,99.90
2019-05-05T09:15:07.934Z,99.90
2019-05-05T09:17:37.436Z,99.90
2019-05-05T09:20:07.238Z,99.90
2019-05-05T09:22:36.689Z,99.90
2019-05-05T09:25:24.984Z,99.90
2019-05-05T09:27:58.859Z,99.90
2019-05-05T09:30:34.319Z,99.90
2019-05-05T09:33:03.942Z,99.90
2019-05-05T09:35:34.254Z,99.90
2019-05-05T09:38:04.202Z,99.90
2019-05-05T09:40:43.807Z,99.90
2019-05-05T09:43:14.735Z,99.90
2019-05-05T09:45:44.333Z,99.90
2019-05-05T09:48:15.210Z,99.90
2019-05-05T09:50:45.540Z,99.90
2019-05-05T09:53:15.505Z,99.90
2019-05-05T09:55:45.516Z,99.90
2019-05-05T09:58:15.550Z,99.90
2019-05-05T10:00:46.808Z,99.90
2019-05-05T10:03:16.321Z,99.90
2019-05-05T10:05:46.012Z,99.90
2019-05-05T10:08:16.603Z,99.90
2019-05-05T10:10:46.204Z,99.80
2019-05-05T10:13:16.267Z,99.90
2019-05-05T10:15:46.712Z,99.90
2019-05-05T10:18:16.476Z,99.90
2019-05-05T10:20:46.552Z,99.90
2019-05-05T10:23:16.808Z,99.90
2019-05-05T10:25:48.538Z,99.90
2019-05-05T10:28:18.609Z,99.90
2019-05-05T10:30:49.082Z,99.90
2019-05-05T10:33:18.522Z,99.90
2019-05-05T10:35:47.972Z,99.90
2019-05-05T10:38:17.618Z,99.90
2019-05-05T10:40:48.477Z,99.90
2019-05-05T10:43:17.910Z,99.90
2019-05-05T10:45:47.926Z,99.90
2019-05-05T10:48:17.905Z,99.90
2019-05-05T10:50:48.070Z,99.90
2019-05-05T10:53:18.293Z,99.90
2019-05-05T10:55:48.449Z,99.90
2019-05-05T10:58:19.024Z,99.90
2019-05-05T11:00:51.615Z,99.90
2019-05-05T11:03:21.187Z,99.90
2019-05-05T11:05:50.804Z,97.30
2019-05-05T11:08:21.320Z,96.10
2019-05-05T11:10:51.538Z,96.50
2019-05-05T11:13:21.122Z,97.10
2019-05-05T11:15:50.568Z,97.50
2019-05-05T11:18:20.186Z,97.60
2019-05-05T11:20:49.773Z,98.40
2019-05-05T11:23:19.626Z,99.30
2019-05-05T11:25:50.390Z,98.50
2019-05-05T11:28:20.845Z,99.90
2019-05-05T11:30:50.448Z,99.80
2019-05-05T11:33:37.716Z,96.30
2019-05-05T11:36:17.918Z,99.90
2019-05-05T11:38:47.622Z,99.00
2019-05-05T11:41:17.090Z,97.00
2019-05-05T11:43:46.560Z,97.00
2019-05-05T11:46:16.166Z,99.90
2019-05-05T11:48:47.168Z,97.40
2019-05-05T11:51:16.753Z,95.00
2019-05-05T11:53:46.290Z,93.40
2019-05-05T11:56:15.736Z,96.40
2019-05-05T11:58:46.232Z,97.50
2019-05-05T12:01:17.032Z,94.90
2019-05-05T12:03:46.644Z,96.40
2019-05-05T12:06:16.155Z,96.60
2019-05-05T12:08:46.105Z,97.30
2019-05-05T12:11:16.916Z,99.00
2019-05-05T12:13:46.506Z,98.40
2019-05-05T12:16:17.920Z,96.80
2019-05-05T12:18:47.389Z,98.60
2019-05-05T12:21:16.902Z,99.90
2019-05-05T12:23:46.371Z,99.90
2019-05-05T12:26:17.465Z,99.90
2019-05-05T12:28:48.682Z,99.90
2019-05-05T12:31:27.466Z,99.00
2019-05-05T12:33:56.994Z,99.80
2019-05-05T12:36:26.450Z,99.90
2019-05-05T12:38:55.985Z,99.90
2019-05-05T12:41:25.504Z,99.90
2019-05-05T12:43:55.159Z,98.70
2019-05-05T12:46:26.296Z,99.10
2019-05-05T12:48:59.037Z,98.50
2019-05-05T12:51:28.560Z,98.40
2019-05-05T12:53:58.418Z,98.20
2019-05-05T12:56:28.006Z,97.30
2019-05-05T12:58:57.540Z,98.50
2019-05-05T13:01:31.103Z,98.80
2019-05-05T13:04:03.451Z,99.00
2019-05-05T13:06:34.583Z,99.60
2019-05-05T13:09:06.279Z,99.20
2019-05-05T13:11:36.591Z,99.10
2019-05-05T13:14:07.791Z,98.20
2019-05-05T13:16:37.294Z,98.00
2019-05-05T13:19:09.606Z,95.10
2019-05-05T13:21:57.119Z,96.40
2019-05-05T13:24:44.502Z,95.80
2019-05-05T13:27:19.366Z,95.90
2019-05-05T13:29:47.664Z,94.60
2019-05-05T13:32:17.241Z,95.60
2019-05-05T13:34:47.870Z,94.20
2019-05-05T13:37:17.535Z,94.50
2019-05-05T13:39:47.072Z,93.20
2019-05-05T13:42:16.529Z,94.80
2019-05-05T13:44:50.502Z,93.10
2019-05-05T13:47:23.821Z,96.10
2019-05-05T13:49:54.274Z,96.30
2019-05-05T13:52:24.410Z,94.30
2019-05-05T13:54:54.436Z,95.00
2019-05-05T13:57:24.593Z,95.70
2019-05-05T13:59:54.632Z,95.70
2019-05-05T14:02:24.567Z,94.40
2019-05-05T14:04:54.312Z,97.20
2019-05-05T14:07:24.075Z,95.60
2019-05-05T14:09:54.998Z,95.60
2019-05-05T14:12:24.621Z,96.70
2019-05-05T14:14:54.679Z,96.20
2019-05-05T14:17:24.637Z,97.40
2019-05-05T14:20:04.157Z,98.50
2019-05-05T14:22:26.063Z,98.40
2019-05-05T14:24:57.182Z,98.10
2019-05-05T14:27:27.562Z,99.50
2019-05-05T14:30:05.151Z,99.90
2019-05-05T14:32:36.418Z,99.90
2019-05-05T14:35:24.633Z,99.90
2019-05-05T14:38:01.476Z,99.90
2019-05-05T14:40:31.063Z,99.90
2019-05-05T14:43:02.197Z,99.70
2019-05-05T14:45:33.999Z,99.90
2019-05-05T14:48:05.011Z,99.90
2019-05-05T14:50:34.770Z,99.90
2019-05-05T14:53:04.609Z,99.90
2019-05-05T14:55:34.684Z,99.90
2019-05-05T14:58:04.253Z,99.90
2019-05-05T15:00:35.950Z,99.90
2019-05-05T15:03:05.577Z,99.90
2019-05-05T15:05:45.476Z,99.90
2019-05-05T15:08:16.974Z,99.90
2019-05-05T15:11:03.525Z,99.90
2019-05-05T15:13:33.829Z,99.90
2019-05-05T15:16:05.487Z,99.30
2019-05-05T15:18:35.106Z,99.90
2019-05-05T15:21:04.826Z,97.20
2019-05-05T15:23:35.875Z,95.90
2019-05-05T15:26:05.455Z,96.30
2019-05-05T15:28:36.106Z,96.40
2019-05-05T15:31:05.605Z,96.00
2019-05-05T15:33:35.060Z,96.20
2019-05-05T15:36:04.640Z,96.00
2019-05-05T15:38:35.563Z,95.20
2019-05-05T15:41:06.167Z,97.30
2019-05-05T15:43:36.802Z,97.90
2019-05-05T15:46:06.330Z,97.60
2019-05-05T15:48:35.900Z,97.60
2019-05-05T15:51:06.861Z,98.30
2019-05-05T15:53:36.363Z,96.70
2019-05-05T15:56:06.063Z,97.50
2019-05-05T15:58:36.669Z,96.90
2019-05-05T16:01:07.759Z,96.80
2019-05-05T16:03:37.229Z,96.70
2019-05-05T16:06:06.682Z,96.20
2019-05-05T16:08:36.142Z,97.30
2019-05-05T16:11:05.671Z,95.50
2019-05-05T16:13:35.431Z,95.80
2019-05-05T16:16:17.196Z,97.50
2019-05-05T16:19:18.351Z,96.40
2019-05-05T16:21:56.751Z,97.30
2019-05-05T16:24:44.493Z,98.00
2019-05-05T16:27:28.165Z,98.20
2019-05-05T16:30:15.102Z,97.40
2019-05-05T16:33:01.371Z,97.40
2019-05-05T16:35:50.297Z,96.80
2019-05-05T16:38:31.963Z,96.50
2019-05-05T16:41:04.259Z,95.20
2019-05-05T16:43:33.834Z,96.30
2019-05-05T16:46:04.248Z,97.10
2019-05-05T16:48:34.679Z,96.90
2019-05-05T16:51:06.194Z,97.10
2019-05-05T16:53:38.804Z,98.60
2019-05-05T16:56:13.811Z,99.90
2019-05-05T16:58:45.870Z,99.90
2019-05-05T17:01:17.441Z,99.90
2019-05-05T17:03:47.014Z,99.90
2019-05-05T17:06:16.645Z,99.90
2019-05-05T17:08:46.890Z,99.90
2019-05-05T17:11:16.444Z,99.90
2019-05-05T17:13:54.517Z,99.90
2019-05-05T17:16:35.001Z,99.90
2019-05-05T17:19:08.499Z,99.90
2019-05-05T17:21:40.909Z,99.90
2019-05-05T17:24:14.060Z,99.90
2019-05-05T17:26:45.763Z,99.90
2019-05-05T17:29:15.291Z,99.90
2019-05-05T17:31:46.659Z,99.90
2019-05-05T17:34:16.175Z,99.90
2019-05-05T17:36:47.325Z,99.90
2019-05-05T17:39:17.172Z,99.90
2019-05-05T17:41:48.575Z,99.90
2019-05-05T17:44:24.217Z,99.90
2019-05-05T17:46:55.329Z,99.90
2019-05-05T17:49:27.062Z,99.90
2019-05-05T17:52:03.690Z,99.90
2019-05-05T17:54:36.171Z,99.90
2019-05-05T17:57:05.759Z,99.90
2019-05-05T17:59:36.616Z,99.90
2019-05-05T18:02:08.305Z,99.90
2019-05-05T18:04:38.742Z,99.90
2019-05-05T18:07:15.382Z,99.90
2019-05-05T18:09:58.513Z,99.90
2019-05-05T18:12:47.229Z,99.90
2019-05-05T18:15:34.891Z,99.90
2019-05-05T18:18:06.579Z,99.90
2019-05-05T18:20:37.987Z,99.90
2019-05-05T18:23:08.260Z,99.90
2019-05-05T18:25:37.701Z,99.90
2019-05-05T18:28:16.943Z,99.90
2019-05-05T18:30:44.514Z,99.90
2019-05-05T18:33:13.996Z,99.90
2019-05-05T18:35:46.226Z,99.90
2019-05-05T18:38:17.148Z,99.90
2019-05-05T18:40:47.537Z,99.90
2019-05-05T18:43:18.612Z,99.90
2019-05-05T18:45:53.757Z,99.90
2019-05-05T18:51:36.784Z,99.90
2019-05-05T18:54:28.744Z,99.90
2019-05-05T18:57:24.499Z,99.90
2019-05-05T19:00:06.404Z,99.90
2019-05-05T19:03:09.305Z,99.90
2019-05-05T19:05:50.279Z,99.90
2019-05-05T19:08:37.886Z,99.90
2019-05-05T19:11:24.572Z,99.90
2019-05-05T19:14:02.834Z,99.90
2019-05-05T19:16:34.647Z,99.90
2019-05-05T19:19:04.796Z,99.90
2019-05-05T19:21:36.200Z,99.90
2019-05-05T19:24:05.664Z,99.90
2019-05-05T19:26:35.288Z,99.90
2019-05-05T19:29:06.524Z,99.90
2019-05-05T19:31:36.648Z,99.90
2019-05-05T19:34:06.323Z,99.90
2019-05-05T19:36:35.818Z,99.90
2019-05-05T19:39:08.065Z,99.90
2019-05-05T19:41:39.192Z,99.90
2019-05-05T19:44:08.804Z,99.90
2019-05-05T19:46:51.555Z,99.90
2019-05-05T19:49:24.174Z,99.90
2019-05-05T19:51:54.216Z,99.90
2019-05-05T19:54:24.984Z,99.90
2019-05-05T19:56:57.644Z,99.90
2019-05-05T19:59:27.192Z,99.90
2019-05-05T20:01:56.830Z,99.90
2019-05-05T20:04:26.292Z,99.90
2019-05-05T20:06:56.933Z,99.90
2019-05-05T20:09:26.518Z,99.90
2019-05-05T20:11:55.972Z,99.90
2019-05-05T20:14:25.567Z,99.90
2019-05-05T20:17:04.432Z,99.90
2019-05-05T20:19:36.015Z,99.90
2019-05-05T20:22:05.596Z,99.90
2019-05-05T20:24:35.122Z,99.90
2019-05-05T20:27:05.892Z,99.90
2019-05-05T20:29:37.516Z,99.90
2019-05-05T20:32:10.327Z,99.90
2019-05-05T20:34:50.358Z,99.90
2019-05-05T20:37:23.489Z,99.90
2019-05-05T20:39:54.502Z,99.90
2019-05-05T20:42:27.220Z,99.90
2019-05-05T20:44:58.989Z,99.90
2019-05-05T20:47:28.525Z,99.90
2019-05-05T20:49:58.055Z,99.90
2019-05-05T20:52:28.624Z,99.90
2019-05-05T20:54:58.187Z,99.90
2019-05-05T20:57:27.641Z,99.90
2019-05-05T20:59:57.238Z,99.90
2019-05-05T21:02:28.341Z,99.90
2019-05-05T21:04:57.856Z,99.90
2019-05-05T21:07:27.368Z,99.90
2019-05-05T21:09:56.908Z,99.90
2019-05-05T21:12:39.158Z,99.90
2019-05-05T21:14:57.494Z,99.90
2019-05-05T21:17:27.056Z,99.90
2019-05-05T21:19:56.608Z,99.90
2019-05-05T21:22:34.737Z,99.90
2019-05-05T21:25:08.452Z,99.90
2019-05-05T21:27:37.919Z,99.90
2019-05-05T21:30:07.500Z,99.90
2019-05-05T21:32:36.960Z,99.90
2019-05-05T21:35:06.502Z,99.90
2019-05-05T21:37:35.934Z,99.90
2019-05-05T21:40:06.506Z,99.90
2019-05-05T21:42:35.948Z,99.90
2019-05-05T21:45:06.573Z,99.90
2019-05-05T21:47:36.062Z,99.90
2019-05-05T21:50:07.970Z,99.90
2019-05-05T21:52:39.082Z,99.90
2019-05-05T21:55:16.086Z,99.90
2019-05-05T21:57:55.852Z,99.90
2019-05-05T22:00:34.718Z,99.90
2019-05-05T22:03:06.162Z,99.90
2019-05-05T22:05:36.284Z,99.90
2019-05-05T22:08:05.880Z,99.90
2019-05-05T22:10:35.300Z,99.90
2019-05-05T22:13:05.023Z,99.90
2019-05-05T22:15:35.805Z,99.90
2019-05-05T22:18:05.356Z,99.90
2019-05-05T22:20:46.256Z,99.90
2019-05-05T22:23:18.474Z,99.90
2019-05-05T22:25:47.966Z,99.90
2019-05-05T22:28:17.416Z,99.90
2019-05-05T22:30:47.338Z,99.90
2019-05-05T22:33:17.529Z,99.90
2019-05-05T22:35:46.978Z,99.90
2019-05-05T22:38:16.402Z,99.90
2019-05-05T22:40:45.906Z,99.90
2019-05-05T22:43:15.588Z,99.90
2019-05-05T22:45:45.147Z,99.90
2019-05-05T22:48:14.800Z,99.90
2019-05-05T22:50:44.235Z,99.90
2019-05-05T22:53:14.038Z,99.90
2019-05-05T22:55:45.033Z,99.90
2019-05-05T22:58:14.460Z,99.90
2019-05-05T23:00:44.030Z,99.90
2019-05-05T23:03:27.626Z,99.90
2019-05-05T23:06:01.480Z,99.90
2019-05-05T23:08:31.182Z,99.90
2019-05-05T23:11:00.750Z,99.90
2019-05-05T23:13:30.177Z,99.90
2019-05-05T23:16:07.318Z,99.90
2019-05-05T23:18:36.747Z,99.90
2019-05-05T23:21:10.884Z,99.90
2019-05-05T23:23:41.942Z,99.90
2019-05-05T23:26:13.929Z,99.90
2019-05-05T23:28:44.387Z,99.90
2019-05-05T23:31:16.180Z,99.90
2019-05-05T23:33:45.880Z,99.90
2019-05-05T23:36:16.252Z,99.90
2019-05-05T23:38:45.692Z,99.90
2019-05-05T23:41:15.182Z,99.90
2019-05-05T23:43:45.181Z,99.90
2019-05-05T23:46:14.619Z,99.90
2019-05-05T23:48:44.191Z,99.90
2019-05-05T23:51:14.049Z,99.90
2019-05-05T23:53:44.502Z,99.90
2019-05-05T23:56:13.930Z,99.90
2019-05-05T23:58:44.467Z,99.90
